Accueil
METAR-TAF:

METAR-TAF

Aéroports :

Aéroport de Bergerac-Dordogne-Périgord

Bergerac, France

latitude: 44-49N, longitude: 000-31E, altitude: 51 m

Observation

Le bulletin a été fait il y a 36 minutes, à 06:00 UTC
Vent 5 kt de est/nord-est
Température 4°C
Humidité 93%
Pression 1005 hPa
Visibilité 10 km ou plus
pas de nuages en-dessous de 1500 mètres et pas de cumulonimbus.

METAR: LFBE 210600Z AUTO 07005KT CAVOK 04/03 Q1005 NOSIG

Heure: 07:36 (06:36 UTC)

Prévision

Le bulletin a été fait il y a 1 heure et 36 minutes, à 05:00 UTC
Prévision valable du 21 à 06 UTC au 22 à 06 UTC
Vent 5 kt de est
Visibilité 10 km ou plus
pas de nuages en-dessous de 1500 mètres et pas de cumulonimbus.
Temporairement
du 21 à 08 UTC au 21 à 18 UTC
Vent 10 kt de sud/sud-est

TAF: LFBE 210500Z 2106/2206 09005KT CAVOK TEMPO 2108/2118 16010KT

Observations et prévisions météorologiques de plus de 4000 aéroports (messages METAR et TAF).

Les stations disponibles sont représentées par des disques jaunes et rouges sur la carte.

Passer la souris dessus pour voir le nom de la station.

Cliquer dessus pour voir les observations et prévisions météorologiques.

Pour changer de carte: cliquez sur les boutons verts avec une croix noire pour zoomer, sur le bouton vert avec un tiret pour effectuer un zoom arrière, ou sur les flèches vertes pour les cartes adjacentes.


METAR-TAF: